Aérodrome :
LOGIN :

S'inscrire | Disclaimer

   EN    FR    IT 

 










Légende :    VFR   VFR Marginal   IFR   IFR Intensif   IFR Très Intensif
Visi : 
Plafond : 
>= 8 km
>= 3000ft
5 à 8 km
1000 à 3000 ft
1500m à 5 km
500 à 1000 ft
800 à 1500m
200 à 500 ft
< 800m
< 200 ft
Symboles :   Orages  Brouillard  Fortes neiges  Fortes précipitations  Vent > 20 kt
SIGMETs :   Divers  Orages  Givrage  Turbulence  Onde Orograph.  Cendres Volcan.







- Altitude de l'aérodrome : 26 ft
- Code IATA : GLA
- Voir les cartes d'approche


EGPF - Glasgow

DERNIER METAR :
  • 211250Z AUTO 20014KT 9999 SCT033 BKN041 17/12 Q1017

METARs EXPIRÉS :
  • 211220Z AUTO 19016KT 9999 NCD 17/11 Q1018
  • 211150Z AUTO 20013KT 160V220 9999 SCT032 18/11 Q1018
  • 211120Z AUTO 20017KT 9999 BKN032 17/11 Q1018
  • 211050Z AUTO 20014KT 9999 SCT031 17/11 Q1019
  • 211020Z AUTO 20017KT 9999 FEW028 17/12 Q1019

TAF TAF EGPF
Valide du 21 à 12h jusqu'au 22 à 12h UTC


211100Z 2112/2212 20015KT 9999 SCT030
TEMPO 2112/2118 21018G28KT
TEMPO 2112/2120 6000 RA BKN012
PROB40
TEMPO 2115/2118 22022G38KT 4000 +RA BKN008
PROB30
TEMPO 2203/2209 BKN014
TEMPO 2209/2212 6000 RA BKN012
PROB30
TEMPO 2209/2212 4000 +RA BKN008
ATIS : +44 141 887 7449
Pas de NOTAMs connus pour ce terrain.



MET'MAP, la Météo Aéronautique d'un coup d'oeil ! - Copyright ORBIFLY Décembre 2007 - Disclaimer

ORBIFLY MET'MAP TEAM :

Programmation & Développement : Alexandra Zaïnal
Conception & Développement : Baudouin d'Aumeries
Co-Programmation & Développement : Marc-Olivier Méhu
Soutien technique & logistique : Manuel Goepfert

Contact : metmap@orbifly.com




SOURCES & CREDITS :

   NOAA